createdAt,value
2023-04-08T00:00:54.231Z,102322.81
2023-04-08T00:03:22.397Z,102328.78
2023-04-08T00:05:50.464Z,102325.19
2023-04-08T00:08:18.392Z,102326.66
2023-04-08T00:10:46.292Z,102326.94
2023-04-08T00:13:14.948Z,102332.50
2023-04-08T00:15:42.992Z,102329.13
2023-04-08T00:18:12.461Z,102338.06
2023-04-08T00:20:40.528Z,102323.16
2023-04-08T00:23:08.463Z,102329.78
2023-04-08T00:25:36.440Z,102331.16
2023-04-08T00:28:04.356Z,102320.03
2023-04-08T00:30:32.303Z,102323.88
2023-04-08T00:33:00.339Z,102324.09
2023-04-08T00:35:30.198Z,102334.06
2023-04-08T00:37:58.153Z,102327.75
2023-04-08T00:40:26.069Z,102333.25
2023-04-08T00:42:53.977Z,102338.34
2023-04-08T00:45:22.044Z,102337.88
2023-04-08T00:47:52.862Z,102336.34
2023-04-08T00:50:21.404Z,102346.00
2023-04-08T00:52:50.743Z,102339.91
2023-04-08T00:55:18.688Z,102341.91
2023-04-08T00:57:46.806Z,102340.25
2023-04-08T01:00:16.105Z,102335.41
2023-04-08T01:02:47.295Z,102336.47
2023-04-08T01:05:19.331Z,102342.97
2023-04-08T01:07:50.500Z,102339.25
2023-04-08T01:10:22.440Z,102335.88
2023-04-08T01:12:53.686Z,102334.03
2023-04-08T01:15:22.249Z,102340.19
2023-04-08T01:17:52.116Z,102338.25
2023-04-08T01:20:20.442Z,102345.53
2023-04-08T01:23:04.752Z,102341.66
2023-04-08T01:25:34.290Z,102338.38
2023-04-08T01:28:06.205Z,102341.66
2023-04-08T01:30:35.802Z,102335.00
2023-04-08T01:33:04.139Z,102339.06
2023-04-08T01:35:32.548Z,102326.28
2023-04-08T01:38:01.343Z,102337.78
2023-04-08T01:40:29.281Z,102329.88
2023-04-08T01:42:58.256Z,102335.44
2023-04-08T01:45:27.831Z,102336.34
2023-04-08T01:47:56.700Z,102331.66
2023-04-08T01:50:25.260Z,102338.31
2023-04-08T01:52:53.830Z,102340.28
2023-04-08T01:55:21.916Z,102343.25
2023-04-08T01:57:52.145Z,102337.91
2023-04-08T02:00:23.465Z,102339.75
2023-04-08T02:02:53.234Z,102338.03
2023-04-08T02:05:21.523Z,102333.31
2023-04-08T02:07:49.642Z,102334.13
2023-04-08T02:10:17.673Z,102335.53
2023-04-08T02:12:46.080Z,102336.09
2023-04-08T02:15:14.980Z,102339.41
2023-04-08T02:17:47.309Z,102333.84
2023-04-08T02:20:19.864Z,102330.72
2023-04-08T02:22:51.029Z,102326.91
2023-04-08T02:25:22.268Z,102322.13
2023-04-08T02:27:50.787Z,102317.06
2023-04-08T02:30:19.498Z,102322.53
2023-04-08T02:32:48.648Z,102317.03
2023-04-08T02:35:18.568Z,102319.59
2023-04-08T02:37:47.962Z,102313.38
2023-04-08T02:40:26.525Z,102322.00
2023-04-08T02:42:54.585Z,102317.97
2023-04-08T02:45:22.718Z,102307.94
2023-04-08T02:47:50.640Z,102319.34
2023-04-08T02:50:19.916Z,102311.88
2023-04-08T02:52:47.819Z,102319.47
2023-04-08T02:55:15.729Z,102317.19
2023-04-08T02:57:44.188Z,102311.13
2023-04-08T03:00:13.371Z,102310.47
2023-04-08T03:02:41.483Z,102318.91
2023-04-08T03:05:10.457Z,102316.44
2023-04-08T03:07:40.037Z,102312.31
2023-04-08T03:10:09.203Z,102328.03
2023-04-08T03:12:37.103Z,102329.47
2023-04-08T03:15:06.277Z,102330.97
2023-04-08T03:17:34.794Z,102328.38
2023-04-08T03:20:04.860Z,102331.78
2023-04-08T03:22:32.972Z,102338.78
2023-04-08T03:25:02.286Z,102345.38
2023-04-08T03:27:30.170Z,102348.38
2023-04-08T03:29:58.135Z,102339.03
2023-04-08T03:32:26.385Z,102329.25
2023-04-08T03:34:54.319Z,102337.34
2023-04-08T03:37:22.205Z,102333.16
2023-04-08T03:39:50.103Z,102333.78
2023-04-08T03:42:19.439Z,102332.34
2023-04-08T03:44:47.332Z,102337.72
2023-04-08T03:47:15.383Z,102345.22
2023-04-08T03:49:43.286Z,102343.94
2023-04-08T03:52:11.180Z,102345.22
2023-04-08T03:54:39.097Z,102351.34
2023-04-08T03:57:07.048Z,102353.56
2023-04-08T03:59:36.517Z,102350.00
2023-04-08T04:02:04.501Z,102359.78
2023-04-08T04:04:32.661Z,102366.59
2023-04-08T04:07:00.760Z,102360.25
2023-04-08T04:09:28.680Z,102372.94
2023-04-08T04:11:56.635Z,102373.97
2023-04-08T04:14:24.505Z,102375.16
2023-04-08T04:16:53.758Z,102373.97
2023-04-08T04:19:21.814Z,102381.63
2023-04-08T04:21:49.725Z,102371.38
2023-04-08T04:24:17.649Z,102380.88
2023-04-08T04:26:45.547Z,102388.66
2023-04-08T04:29:13.440Z,102392.09
2023-04-08T04:31:41.435Z,102382.34
2023-04-08T04:34:10.757Z,102386.53
2023-04-08T04:36:38.639Z,102393.19
2023-04-08T04:39:06.554Z,102397.50
2023-04-08T04:41:38.855Z,102396.53
2023-04-08T04:44:07.112Z,102388.38
2023-04-08T04:46:35.153Z,102398.44
2023-04-08T04:49:03.120Z,102399.69
2023-04-08T04:51:34.185Z,102401.41
2023-04-08T04:54:02.109Z,102401.31
2023-04-08T04:56:30.022Z,102403.53
2023-04-08T04:58:57.948Z,102409.38
2023-04-08T05:01:26.182Z,102410.03
2023-04-08T05:03:54.135Z,102407.56
2023-04-08T05:06:22.068Z,102406.59
2023-04-08T05:08:52.011Z,102407.81
2023-04-08T05:11:21.811Z,102414.06
2023-04-08T05:13:49.898Z,102410.25
2023-04-08T05:16:17.944Z,102423.28
2023-04-08T05:18:45.953Z,102431.41
2023-04-08T05:21:13.869Z,102425.38
2023-04-08T05:23:41.753Z,102428.53
2023-04-08T05:26:11.415Z,102426.63
2023-04-08T05:28:39.308Z,102432.19
2023-04-08T05:31:07.299Z,102428.84
2023-04-08T05:33:35.232Z,102430.94
2023-04-08T05:36:03.236Z,102432.56
2023-04-08T05:38:31.139Z,102432.09
2023-04-08T05:40:59.086Z,102439.63
2023-04-08T05:43:28.367Z,102433.13
2023-04-08T05:45:56.272Z,102434.84
2023-04-08T05:48:24.237Z,102437.03
2023-04-08T05:50:52.202Z,102431.13
2023-04-08T05:53:20.093Z,102443.19
2023-04-08T05:55:47.989Z,102443.59
2023-04-08T05:58:16.087Z,102442.03
2023-04-08T06:00:45.383Z,102447.69
2023-04-08T06:03:13.542Z,102442.72
2023-04-08T06:05:41.806Z,102448.63
2023-04-08T06:08:09.732Z,102455.38
2023-04-08T06:10:37.636Z,102461.00
2023-04-08T06:13:05.566Z,102461.41
2023-04-08T06:15:33.648Z,102463.31
2023-04-08T06:18:03.053Z,102474.88
2023-04-08T06:20:31.364Z,102482.09
2023-04-08T06:22:59.252Z,102475.56
2023-04-08T06:25:27.371Z,102471.66
2023-04-08T06:27:55.275Z,102480.94
2023-04-08T06:30:23.432Z,102480.09
2023-04-08T06:32:51.430Z,102476.09
2023-04-08T06:35:20.919Z,102486.34
2023-04-08T06:37:48.804Z,102488.63
2023-04-08T06:40:16.730Z,102488.72
2023-04-08T06:42:44.624Z,102493.59
2023-04-08T06:45:12.786Z,102502.13
2023-04-08T06:47:40.742Z,102505.59
2023-04-08T06:50:09.392Z,102509.13
2023-04-08T06:52:38.696Z,102505.19
2023-04-08T06:55:07.417Z,102511.25
2023-04-08T06:57:35.359Z,102514.31
2023-04-08T07:00:03.464Z,102520.16
2023-04-08T07:02:31.459Z,102517.38
2023-04-08T07:04:59.642Z,102518.44
2023-04-08T07:07:27.579Z,102523.69
2023-04-08T07:09:57.000Z,102521.31
2023-04-08T07:12:25.016Z,102526.38
2023-04-08T07:14:53.188Z,102529.16
2023-04-08T07:17:21.135Z,102527.84
2023-04-08T07:19:49.642Z,102532.91
2023-04-08T07:22:17.542Z,102534.66
2023-04-08T07:24:49.773Z,102530.72
2023-04-08T07:27:19.151Z,102527.47
2023-04-08T07:29:47.067Z,102524.88
2023-04-08T07:32:15.091Z,102534.66
2023-04-08T07:34:42.967Z,102532.91
2023-04-08T07:37:10.866Z,102523.63
2023-04-08T07:39:38.769Z,102529.84
2023-04-08T07:42:07.150Z,102529.19
2023-04-08T07:44:36.484Z,102537.31
2023-04-08T07:47:04.414Z,102532.16
2023-04-08T07:49:32.320Z,102538.28
2023-04-08T07:52:00.220Z,102536.47
2023-04-08T07:54:28.127Z,102539.00
2023-04-08T07:56:56.995Z,102534.78
2023-04-08T07:59:24.985Z,102542.25
2023-04-08T08:01:54.566Z,102542.34
2023-04-08T08:04:25.799Z,102540.59
2023-04-08T08:06:53.873Z,102547.53
2023-04-08T08:09:21.808Z,102541.31
2023-04-08T08:11:49.672Z,102547.34
2023-04-08T08:14:17.600Z,102540.91
2023-04-08T08:16:45.751Z,102548.41
2023-04-08T08:19:15.032Z,102555.88
2023-04-08T08:21:42.953Z,102556.91
2023-04-08T08:24:10.854Z,102559.78
2023-04-08T08:26:39.033Z,102553.19
2023-04-08T08:29:08.619Z,102557.00
2023-04-08T08:31:36.919Z,102556.44
2023-04-08T08:34:04.882Z,102555.97
2023-04-08T08:36:34.829Z,102560.28
2023-04-08T08:39:03.045Z,102569.69
2023-04-08T08:41:35.261Z,102567.09
2023-04-08T08:44:03.872Z,102566.22
2023-04-08T08:46:31.827Z,102571.91
2023-04-08T08:48:59.780Z,102571.16
2023-04-08T08:51:29.076Z,102572.22
2023-04-08T08:53:58.359Z,102580.25
2023-04-08T08:56:26.459Z,102581.91
2023-04-08T08:58:54.803Z,102589.56
2023-04-08T09:01:33.184Z,102589.97
2023-04-08T09:04:12.701Z,102588.44
2023-04-08T09:06:41.293Z,102589.56
2023-04-08T09:09:13.449Z,102593.91
2023-04-08T09:11:42.592Z,102592.94
2023-04-08T09:14:20.840Z,102591.78
2023-04-08T09:16:48.863Z,102592.66
2023-04-08T09:19:16.834Z,102603.00
2023-04-08T09:21:45.028Z,102598.78
2023-04-08T09:24:29.993Z,102606.97
2023-04-08T09:26:57.917Z,102602.34
2023-04-08T09:29:27.614Z,102609.22
2023-04-08T09:31:57.730Z,102606.53
2023-04-08T09:34:27.554Z,102604.69
2023-04-08T09:36:56.711Z,102602.69
2023-04-08T09:39:26.443Z,102613.44
2023-04-08T09:41:54.976Z,102612.78
2023-04-08T09:44:23.626Z,102605.06
2023-04-08T09:46:58.108Z,102607.78
2023-04-08T09:49:28.316Z,102608.53
2023-04-08T09:52:01.068Z,102610.31
2023-04-08T09:54:36.400Z,102608.31
2023-04-08T09:57:11.610Z,102610.59
2023-04-08T09:59:40.410Z,102616.81
2023-04-08T10:02:11.428Z,102607.97
2023-04-08T10:04:41.096Z,102615.28
2023-04-08T10:07:09.957Z,102620.84
2023-04-08T10:09:41.540Z,102615.81
2023-04-08T10:12:09.489Z,102614.34
2023-04-08T10:14:37.372Z,102611.56
2023-04-08T10:17:36.885Z,102610.50
2023-04-08T10:20:05.514Z,102613.56
2023-04-08T10:22:49.853Z,102609.50
2023-04-08T10:25:32.597Z,102610.25
2023-04-08T10:28:01.629Z,102609.38
2023-04-08T10:30:43.088Z,102615.81
2023-04-08T10:33:12.411Z,102606.00
2023-04-08T10:35:43.034Z,102604.25
2023-04-08T10:38:11.754Z,102609.03
2023-04-08T10:40:42.841Z,102604.25
2023-04-08T10:43:11.527Z,102607.31
2023-04-08T10:45:39.767Z,102610.13
2023-04-08T10:48:14.968Z,102610.34
2023-04-08T10:50:43.069Z,102615.94
2023-04-08T10:53:11.767Z,102610.75
2023-04-08T10:55:41.074Z,102614.88
2023-04-08T10:58:09.765Z,102611.84
2023-04-08T11:00:38.824Z,102612.47
2023-04-08T11:03:08.750Z,102612.47
2023-04-08T11:05:38.774Z,102618.75
2023-04-08T11:08:07.055Z,102624.16
2023-04-08T11:10:40.004Z,102629.72
2023-04-08T11:13:09.902Z,102621.63
2023-04-08T11:15:38.408Z,102625.47
2023-04-08T11:18:06.883Z,102627.88
2023-04-08T11:20:37.265Z,102628.28
2023-04-08T11:23:05.287Z,102625.72
2023-04-08T11:25:33.305Z,102622.69
2023-04-08T11:28:03.404Z,102622.53
2023-04-08T11:30:31.783Z,102621.72
2023-04-08T11:32:59.797Z,102626.75
2023-04-08T11:35:30.268Z,102617.81
2023-04-08T11:37:58.725Z,102622.56
2023-04-08T11:40:27.467Z,102617.22
2023-04-08T11:42:55.388Z,102618.19
2023-04-08T11:45:24.764Z,102615.22
2023-04-08T11:47:53.045Z,102618.66
2023-04-08T11:50:24.775Z,102610.09
2023-04-08T11:52:53.275Z,102617.09
2023-04-08T11:55:25.545Z,102620.38
2023-04-08T11:57:53.860Z,102622.94
2023-04-08T12:00:22.518Z,102620.44
2023-04-08T12:02:52.697Z,102620.25
2023-04-08T12:05:21.413Z,102621.47
2023-04-08T12:07:49.319Z,102622.50
2023-04-08T12:10:17.230Z,102624.69
2023-04-08T12:12:45.144Z,102624.66
2023-04-08T12:15:13.440Z,102630.53
2023-04-08T12:17:41.458Z,102626.19
2023-04-08T12:20:12.050Z,102627.66
2023-04-08T12:22:40.501Z,102633.56
2023-04-08T12:25:08.857Z,102629.72
2023-04-08T12:27:36.739Z,102632.25
2023-04-08T12:30:05.379Z,102619.56
2023-04-08T12:32:33.641Z,102622.84
2023-04-08T12:35:01.622Z,102622.00
2023-04-08T12:37:30.951Z,102622.69
2023-04-08T12:39:58.882Z,102621.16
2023-04-08T12:42:28.029Z,102623.31
2023-04-08T12:44:56.423Z,102629.75
2023-04-08T12:47:25.655Z,102629.28
2023-04-08T12:49:54.298Z,102624.31
2023-04-08T12:52:23.057Z,102630.81
2023-04-08T12:54:52.356Z,102629.41
2023-04-08T12:57:20.250Z,102621.53
2023-04-08T12:59:48.938Z,102633.59
2023-04-08T13:02:16.884Z,102639.84
2023-04-08T13:04:44.927Z,102630.53
2023-04-08T13:07:12.840Z,102637.41
2023-04-08T13:09:40.729Z,102621.53
2023-04-08T13:12:10.719Z,102635.03
2023-04-08T13:14:38.598Z,102634.94
2023-04-08T13:17:06.605Z,102630.72
2023-04-08T13:19:35.063Z,102632.00
2023-04-08T13:22:03.121Z,102635.47
2023-04-08T13:24:31.226Z,102638.34
2023-04-08T13:26:59.321Z,102636.91
2023-04-08T13:29:28.609Z,102634.06
2023-04-08T13:31:56.553Z,102634.81
2023-04-08T13:34:24.551Z,102634.78
2023-04-08T13:36:52.534Z,102636.81
2023-04-08T13:39:20.496Z,102640.03
2023-04-08T13:41:49.102Z,102640.66
2023-04-08T13:44:17.658Z,102645.59
2023-04-08T13:46:46.935Z,102647.50
2023-04-08T13:49:16.142Z,102653.28
2023-04-08T13:51:44.049Z,102644.91
2023-04-08T13:54:11.958Z,102644.09
2023-04-08T13:56:39.887Z,102640.25
2023-04-08T13:59:07.825Z,102639.75
2023-04-08T14:01:35.842Z,102644.13
2023-04-08T14:04:05.290Z,102645.63
2023-04-08T14:06:33.767Z,102644.53
2023-04-08T14:09:01.645Z,102645.31
2023-04-08T14:11:29.519Z,102647.47
2023-04-08T14:13:57.521Z,102646.66
2023-04-08T14:16:25.641Z,102652.66
2023-04-08T14:18:53.891Z,102647.47
2023-04-08T14:21:23.348Z,102640.56
2023-04-08T14:23:51.217Z,102650.00
2023-04-08T14:26:19.094Z,102647.06
2023-04-08T14:28:47.647Z,102641.28
2023-04-08T14:31:15.847Z,102641.94
2023-04-08T14:33:44.115Z,102630.72
2023-04-08T14:36:12.272Z,102645.31
2023-04-08T14:38:41.668Z,102631.59
2023-04-08T14:41:09.690Z,102635.41
2023-04-08T14:43:37.592Z,102634.56
2023-04-08T14:46:05.666Z,102635.91
2023-04-08T14:48:33.617Z,102639.28
2023-04-08T14:51:01.723Z,102635.34
2023-04-08T14:53:29.632Z,102640.72
2023-04-08T14:55:58.890Z,102640.34
2023-04-08T14:58:26.892Z,102645.66
2023-04-08T15:00:55.698Z,102648.25
2023-04-08T15:03:23.860Z,102638.75
2023-04-08T15:05:51.909Z,102643.50
2023-04-08T15:08:19.980Z,102652.16
2023-04-08T15:10:47.889Z,102649.75
2023-04-08T15:13:17.395Z,102642.00
2023-04-08T15:15:45.559Z,102643.50
2023-04-08T15:18:13.479Z,102648.63
2023-04-08T15:20:41.536Z,102643.53
2023-04-08T15:23:09.495Z,102641.66
2023-04-08T15:25:37.400Z,102647.50
2023-04-08T15:28:05.318Z,102655.88
2023-04-08T15:30:36.216Z,102646.16
2023-04-08T15:33:04.735Z,102650.41
2023-04-08T15:35:33.014Z,102645.72
2023-04-08T15:38:01.825Z,102643.78
2023-04-08T15:40:32.208Z,102649.41
2023-04-08T15:43:00.148Z,102646.56
2023-04-08T15:45:28.578Z,102649.63
2023-04-08T15:47:58.018Z,102644.69
2023-04-08T15:50:29.838Z,102652.44
2023-04-08T15:52:58.010Z,102644.19
2023-04-08T15:55:25.972Z,102649.72
2023-04-08T15:57:56.685Z,102649.78
2023-04-08T16:00:24.877Z,102655.50
2023-04-08T16:02:53.127Z,102655.75
2023-04-08T16:05:22.674Z,102657.75
2023-04-08T16:07:50.583Z,102658.63
2023-04-08T16:10:18.698Z,102655.19
2023-04-08T16:12:47.386Z,102663.00
2023-04-08T16:15:15.391Z,102662.13
2023-04-08T16:17:43.354Z,102663.41
2023-04-08T16:20:12.322Z,102651.38
2023-04-08T16:22:41.628Z,102658.56
2023-04-08T16:25:10.511Z,102666.25
2023-04-08T16:27:39.165Z,102652.88
2023-04-08T16:30:08.313Z,102672.69
2023-04-08T16:32:36.882Z,102671.94
2023-04-08T16:35:05.133Z,102671.47
2023-04-08T16:37:33.673Z,102671.38
2023-04-08T16:40:04.409Z,102677.75
2023-04-08T16:42:32.891Z,102676.88
2023-04-08T16:45:01.290Z,102681.28
2023-04-08T16:47:29.242Z,102682.72
2023-04-08T16:49:57.170Z,102678.91
2023-04-08T16:52:25.045Z,102677.16
2023-04-08T16:54:53.517Z,102674.88
2023-04-08T16:57:23.536Z,102680.13
2023-04-08T16:59:51.568Z,102692.63
2023-04-08T17:02:19.615Z,102677.41
2023-04-08T17:04:50.134Z,102682.34
2023-04-08T17:07:18.170Z,102680.53
2023-04-08T17:09:51.372Z,102685.06
2023-04-08T17:12:19.351Z,102684.28
2023-04-08T17:14:49.332Z,102689.22
2023-04-08T17:17:17.332Z,102688.16
2023-04-08T17:19:45.240Z,102692.78
2023-04-08T17:22:13.144Z,102693.28
2023-04-08T17:24:41.062Z,102687.88
2023-04-08T17:27:09.181Z,102688.75
2023-04-08T17:29:37.260Z,102691.34
2023-04-08T17:32:06.821Z,102691.13
2023-04-08T17:34:34.713Z,102692.31
2023-04-08T17:37:02.782Z,102697.44
2023-04-08T17:39:31.610Z,102694.63
2023-04-08T17:41:59.643Z,102700.59
2023-04-08T17:44:29.746Z,102693.09
2023-04-08T17:46:57.897Z,102694.09
2023-04-08T17:49:28.991Z,102696.47
2023-04-08T17:51:57.732Z,102696.94
2023-04-08T17:54:25.648Z,102692.06
2023-04-08T17:56:53.792Z,102698.09
2023-04-08T17:59:21.835Z,102705.88
2023-04-08T18:01:49.856Z,102704.63
2023-04-08T18:04:17.997Z,102709.31
2023-04-08T18:06:47.360Z,102712.72
2023-04-08T18:09:15.323Z,102718.47
2023-04-08T18:11:43.313Z,102710.13
2023-04-08T18:14:12.557Z,102718.69
2023-04-08T18:16:40.548Z,102711.28
2023-04-08T18:19:08.716Z,102717.53
2023-04-08T18:21:36.741Z,102720.22
2023-04-08T18:24:08.672Z,102716.88
2023-04-08T18:26:37.138Z,102720.44
2023-04-08T18:29:05.052Z,102728.09
2023-04-08T18:31:32.950Z,102726.00
2023-04-08T18:34:00.866Z,102732.22
2023-04-08T18:36:28.770Z,102737.81
2023-04-08T18:38:57.257Z,102728.78
2023-04-08T18:41:27.947Z,102734.06
2023-04-08T18:43:56.604Z,102736.44
2023-04-08T18:46:24.580Z,102732.16
2023-04-08T18:48:52.489Z,102734.34
2023-04-08T18:51:20.384Z,102735.88
2023-04-08T18:53:48.381Z,102740.19
2023-04-08T18:56:16.804Z,102734.53
2023-04-08T18:58:47.102Z,102736.75
2023-04-08T19:01:16.273Z,102739.44
2023-04-08T19:03:44.542Z,102740.00
2023-04-08T19:06:13.654Z,102738.66
2023-04-08T19:08:41.570Z,102745.47
2023-04-08T19:11:09.509Z,102740.97
2023-04-08T19:13:37.647Z,102743.75
2023-04-08T19:16:08.158Z,102748.91
2023-04-08T19:18:36.143Z,102744.69
2023-04-08T19:21:04.050Z,102741.06
2023-04-08T19:23:32.132Z,102736.19
2023-04-08T19:26:00.126Z,102734.06
2023-04-08T19:28:28.015Z,102734.06
2023-04-08T19:30:55.967Z,102734.91
2023-04-08T19:33:27.502Z,102728.69
2023-04-08T19:35:55.757Z,102732.69
2023-04-08T19:38:23.959Z,102735.00
2023-04-08T19:40:51.868Z,102724.47
2023-04-08T19:43:19.758Z,102727.81
2023-04-08T19:45:47.852Z,102732.03
2023-04-08T19:48:15.761Z,102735.78
2023-04-08T19:50:45.044Z,102727.03
2023-04-08T19:53:12.928Z,102735.78
2023-04-08T19:55:40.885Z,102726.56
2023-04-08T19:58:08.794Z,102731.25
2023-04-08T20:00:37.425Z,102733.00
2023-04-08T20:03:06.274Z,102728.84
2023-04-08T20:05:34.474Z,102732.50
2023-04-08T20:08:03.829Z,102730.59
2023-04-08T20:10:31.766Z,102733.75
2023-04-08T20:12:59.717Z,102739.31
2023-04-08T20:15:28.144Z,102727.69
2023-04-08T20:17:56.565Z,102732.41
2023-04-08T20:20:26.651Z,102736.22
2023-04-08T20:22:55.617Z,102731.91
2023-04-08T20:25:25.042Z,102739.41
2023-04-08T20:27:53.149Z,102736.63
2023-04-08T20:30:21.149Z,102743.53
2023-04-08T20:32:49.191Z,102738.63
2023-04-08T20:35:17.487Z,102740.84
2023-04-08T20:37:46.291Z,102741.34
2023-04-08T20:40:16.388Z,102744.13
2023-04-08T20:42:47.047Z,102743.91
2023-04-08T20:45:14.940Z,102741.41
2023-04-08T20:47:44.625Z,102750.75
2023-04-08T20:50:12.977Z,102748.66
2023-04-08T20:52:40.931Z,102754.88
2023-04-08T20:55:09.763Z,102756.63
2023-04-08T20:57:37.649Z,102765.25
2023-04-08T21:00:08.230Z,102757.59
2023-04-08T21:02:36.457Z,102754.81
2023-04-08T21:05:04.930Z,102758.06
2023-04-08T21:07:32.828Z,102758.16
2023-04-08T21:10:00.999Z,102753.84
2023-04-08T21:12:28.938Z,102746.63
2023-04-08T21:14:56.811Z,102748.38
2023-04-08T21:19:54.060Z,102747.13
2023-04-08T21:22:22.015Z,102746.94
2023-04-08T21:24:49.924Z,102749.50
2023-04-08T21:27:17.846Z,102748.75
2023-04-08T21:29:45.753Z,102748.38
2023-04-08T21:32:13.699Z,102751.44
2023-04-08T21:34:43.406Z,102744.72
2023-04-08T21:37:11.325Z,102746.72
2023-04-08T21:39:39.236Z,102745.69
2023-04-08T21:42:07.190Z,102747.13
2023-04-08T21:44:35.094Z,102760.66
2023-04-08T21:47:03.028Z,102760.09
2023-04-08T21:49:31.621Z,102758.84
2023-04-08T21:52:00.940Z,102751.44
2023-04-08T21:54:28.811Z,102755.28
2023-04-08T21:56:56.947Z,102757.00
2023-04-08T21:59:25.002Z,102758.75
2023-04-08T22:01:52.962Z,102751.44
2023-04-08T22:04:21.081Z,102757.00
2023-04-08T22:06:49.867Z,102757.38
2023-04-08T22:09:19.481Z,102759.91
2023-04-08T22:11:47.385Z,102759.91
2023-04-08T22:14:15.577Z,102757.13
2023-04-08T22:16:43.606Z,102750.69
2023-04-08T22:19:11.776Z,102751.53
2023-04-08T22:21:39.666Z,102752.97
2023-04-08T22:24:07.734Z,102757.59
2023-04-08T22:26:37.063Z,102759.19
2023-04-08T22:29:05.036Z,102759.78
2023-04-08T22:31:32.929Z,102760.72
2023-04-08T22:34:00.818Z,102755.25
2023-04-08T22:36:28.731Z,102751.22
2023-04-08T22:38:56.611Z,102757.38
2023-04-08T22:41:24.958Z,102753.41
2023-04-08T22:43:54.210Z,102755.66
2023-04-08T22:46:22.161Z,102753.13
2023-04-08T22:48:50.462Z,102761.78
2023-04-08T22:51:18.710Z,102761.78
2023-04-08T22:53:46.722Z,102761.78
2023-04-08T22:56:14.940Z,102756.72
2023-04-08T22:58:42.926Z,102754.97
2023-04-08T23:01:17.581Z,102757.28
2023-04-08T23:03:45.629Z,102759.56
2023-04-08T23:06:13.580Z,102767.44
2023-04-08T23:08:41.584Z,102761.50
2023-04-08T23:11:09.500Z,102757.91
2023-04-08T23:13:37.893Z,102755.19
2023-04-08T23:16:06.401Z,102755.81
2023-04-08T23:18:36.003Z,102759.59
2023-04-08T23:21:03.969Z,102765.44
2023-04-08T23:23:34.668Z,102768.53
2023-04-08T23:26:02.925Z,102755.69
2023-04-08T23:28:31.094Z,102764.97
2023-04-08T23:31:02.539Z,102759.75
2023-04-08T23:33:31.329Z,102757.34
2023-04-08T23:36:01.018Z,102756.16
2023-04-08T23:38:28.987Z,102754.09
2023-04-08T23:40:56.992Z,102753.69
2023-04-08T23:43:24.896Z,102754.69
2023-04-08T23:45:53.340Z,102753.25
2023-04-08T23:48:21.218Z,102749.59
2023-04-08T23:50:51.701Z,102755.66
2023-04-08T23:53:21.300Z,102758.59
2023-04-08T23:55:49.478Z,102752.47
2023-04-08T23:58:17.421Z,102753.41
